createdAt,value
2022-10-15T00:00:40.122Z,10.24
2022-10-15T00:03:09.725Z,10.21
2022-10-15T00:05:39.663Z,10.18
2022-10-15T00:08:13.959Z,10.16
2022-10-15T00:10:43.882Z,10.14
2022-10-15T00:13:13.872Z,10.10
2022-10-15T00:15:44.148Z,10.02
2022-10-15T00:18:14.192Z,10.05
2022-10-15T00:20:44.589Z,10.00
2022-10-15T00:23:16.971Z,9.98
2022-10-15T00:25:47.043Z,9.96
2022-10-15T00:28:17.235Z,9.90
2022-10-15T00:30:47.506Z,9.86
2022-10-15T00:33:17.591Z,9.85
2022-10-15T00:35:59.839Z,9.80
2022-10-15T00:38:34.929Z,9.76
2022-10-15T00:41:06.622Z,9.70
2022-10-15T00:43:45.583Z,9.71
2022-10-15T00:46:27.026Z,9.67
2022-10-15T00:49:01.038Z,9.62
2022-10-15T00:51:36.506Z,9.62
2022-10-15T00:54:09.723Z,9.60
2022-10-15T00:56:41.809Z,9.59
2022-10-15T00:59:13.567Z,9.57
2022-10-15T01:01:44.527Z,9.51
2022-10-15T01:04:17.326Z,9.47
2022-10-15T01:06:48.106Z,9.51
2022-10-15T01:09:20.397Z,9.50
2022-10-15T01:11:53.196Z,9.43
2022-10-15T01:14:34.851Z,9.44
2022-10-15T01:17:11.476Z,9.44
2022-10-15T01:20:08.941Z,9.44
2022-10-15T01:22:55.492Z,9.41
2022-10-15T01:25:40.676Z,9.39
2022-10-15T01:28:26.250Z,9.38
2022-10-15T01:31:02.135Z,9.38
2022-10-15T01:33:38.968Z,9.26
2022-10-15T01:36:15.785Z,9.35
2022-10-15T01:38:58.186Z,9.32
2022-10-15T01:41:33.130Z,9.32
2022-10-15T01:44:06.520Z,9.31
2022-10-15T01:46:51.848Z,9.28
2022-10-15T01:49:27.594Z,9.27
2022-10-15T01:51:59.198Z,9.25
2022-10-15T01:54:30.335Z,9.24
2022-10-15T01:57:00.898Z,9.22
2022-10-15T01:59:33.643Z,9.18
2022-10-15T02:02:05.127Z,9.20
2022-10-15T02:04:34.794Z,9.15
2022-10-15T02:07:08.404Z,9.19
2022-10-15T02:09:47.783Z,9.18
2022-10-15T02:12:33.087Z,9.18
2022-10-15T02:15:12.490Z,9.16
2022-10-15T02:17:52.700Z,9.15
2022-10-15T02:20:24.377Z,9.14
2022-10-15T02:23:01.880Z,9.13
2022-10-15T02:25:31.623Z,9.04
2022-10-15T02:28:02.521Z,9.11
2022-10-15T02:30:33.486Z,9.10
2022-10-15T02:33:05.466Z,9.08
2022-10-15T02:35:36.000Z,9.08
2022-10-15T02:41:03.005Z,9.02
2022-10-15T02:43:33.074Z,8.98
2022-10-15T02:46:02.433Z,8.94
2022-10-15T02:48:33.654Z,8.89
2022-10-15T02:51:04.204Z,8.84
2022-10-15T02:53:34.928Z,8.80
2022-10-15T02:56:06.494Z,8.77
2022-10-15T02:58:35.945Z,8.77
2022-10-15T03:01:05.916Z,8.76
2022-10-15T03:03:37.287Z,8.77
2022-10-15T03:06:07.837Z,8.77
2022-10-15T03:08:37.276Z,8.76
2022-10-15T03:11:08.218Z,8.77
2022-10-15T03:13:38.753Z,8.79
2022-10-15T03:16:09.183Z,8.72
2022-10-15T03:18:41.360Z,8.83
2022-10-15T03:21:12.671Z,8.83
2022-10-15T03:23:42.376Z,8.75
2022-10-15T03:26:20.174Z,8.86
2022-10-15T03:28:49.532Z,8.83
2022-10-15T03:31:32.813Z,8.87
2022-10-15T03:34:06.796Z,8.87
2022-10-15T03:36:36.018Z,8.87
2022-10-15T03:39:08.993Z,8.87
2022-10-15T03:41:40.809Z,8.84
2022-10-15T03:44:10.911Z,8.76
2022-10-15T03:46:45.006Z,8.84
2022-10-15T03:49:17.209Z,8.84
2022-10-15T03:51:46.538Z,8.83
2022-10-15T03:54:15.832Z,8.82
2022-10-15T03:56:51.871Z,8.81
2022-10-15T03:59:28.404Z,8.80
2022-10-15T04:02:01.344Z,8.78
2022-10-15T04:04:33.621Z,8.76
2022-10-15T04:07:03.021Z,8.74
2022-10-15T04:09:34.412Z,8.72
2022-10-15T04:12:22.350Z,8.71
2022-10-15T04:14:52.228Z,8.69
2022-10-15T04:17:21.615Z,8.69
2022-10-15T04:19:54.101Z,8.67
2022-10-15T04:22:24.637Z,8.63
2022-10-15T04:24:59.225Z,8.59
2022-10-15T04:27:31.885Z,8.55
2022-10-15T04:30:09.679Z,8.49
2022-10-15T04:32:43.330Z,8.49
2022-10-15T04:35:15.462Z,8.49
2022-10-15T04:38:05.021Z,8.50
2022-10-15T04:41:00.802Z,8.48
2022-10-15T04:43:37.558Z,8.48
2022-10-15T04:46:10.768Z,8.47
2022-10-15T04:48:43.205Z,8.42
2022-10-15T04:51:19.859Z,8.38
2022-10-15T04:54:07.698Z,8.33
2022-10-15T04:56:41.030Z,8.29
2022-10-15T04:59:10.572Z,8.27
2022-10-15T05:01:59.793Z,8.24
2022-10-15T05:04:29.946Z,8.25
2022-10-15T05:07:01.411Z,8.27
2022-10-15T05:09:30.859Z,8.29
2022-10-15T05:12:01.053Z,8.31
2022-10-15T05:14:31.428Z,8.31
2022-10-15T05:17:31.555Z,8.33
2022-10-15T05:20:02.622Z,8.34
2022-10-15T05:22:35.529Z,8.36
2022-10-15T05:25:06.023Z,8.37
2022-10-15T05:27:39.498Z,8.36
2022-10-15T05:30:10.554Z,8.36
2022-10-15T05:32:53.684Z,8.35
2022-10-15T05:35:24.419Z,8.35
2022-10-15T05:38:06.667Z,8.36
2022-10-15T05:40:36.104Z,8.35
2022-10-15T05:43:12.165Z,8.35
2022-10-15T05:45:41.709Z,8.36
2022-10-15T05:48:11.021Z,8.25
2022-10-15T05:50:40.300Z,8.37
2022-10-15T05:53:15.839Z,8.37
2022-10-15T05:55:48.991Z,8.37
2022-10-15T05:58:18.228Z,8.37
2022-10-15T06:00:47.535Z,8.38
2022-10-15T06:03:16.743Z,8.42
2022-10-15T06:05:45.984Z,8.34
2022-10-15T06:08:17.460Z,8.47
2022-10-15T06:10:47.538Z,8.50
2022-10-15T06:13:17.990Z,8.55
2022-10-15T06:15:48.554Z,8.55
2022-10-15T06:18:17.879Z,8.59
2022-10-15T06:20:52.584Z,8.64
2022-10-15T06:23:24.078Z,8.67
2022-10-15T06:25:53.636Z,8.70
2022-10-15T06:28:23.013Z,8.73
2022-10-15T06:30:52.272Z,8.74
2022-10-15T06:33:21.485Z,8.82
2022-10-15T06:35:50.767Z,8.84
2022-10-15T06:38:20.127Z,8.80
2022-10-15T06:40:51.355Z,8.90
2022-10-15T06:43:20.786Z,8.94
2022-10-15T06:45:50.031Z,8.97
2022-10-15T06:48:19.708Z,9.01
2022-10-15T06:50:49.087Z,9.08
2022-10-15T06:53:19.132Z,9.17
2022-10-15T06:55:50.446Z,9.19
2022-10-15T06:58:19.821Z,9.40
2022-10-15T07:00:49.051Z,9.49
2022-10-15T07:03:18.298Z,9.60
2022-10-15T07:05:47.596Z,9.76
2022-10-15T07:08:19.307Z,10.11
2022-10-15T07:10:50.904Z,10.71
2022-10-15T07:13:20.519Z,11.27
2022-10-15T07:15:53.481Z,11.64
2022-10-15T07:18:22.878Z,11.83
2022-10-15T07:20:52.164Z,11.89
2022-10-15T07:23:24.170Z,11.91
2022-10-15T07:25:59.580Z,11.90
2022-10-15T07:28:29.378Z,11.85
2022-10-15T07:31:03.157Z,11.81
2022-10-15T07:33:33.872Z,11.74
2022-10-15T07:36:05.813Z,11.70
2022-10-15T07:38:35.447Z,11.64
2022-10-15T07:41:07.931Z,11.60
2022-10-15T07:43:45.480Z,11.56
2022-10-15T07:46:14.886Z,11.50
2022-10-15T07:48:44.141Z,11.44
2022-10-15T07:51:14.112Z,11.37
2022-10-15T07:53:43.692Z,11.36
2022-10-15T07:56:17.119Z,11.31
2022-10-15T07:58:51.293Z,11.28
2022-10-15T08:01:21.659Z,11.24
2022-10-15T08:03:51.081Z,11.23
2022-10-15T08:06:20.705Z,11.22
2022-10-15T08:08:50.047Z,11.25
2022-10-15T08:11:21.412Z,11.23
2022-10-15T08:13:50.723Z,11.21
2022-10-15T08:16:20.503Z,11.19
2022-10-15T08:19:01.105Z,11.19
2022-10-15T08:21:30.332Z,11.19
2022-10-15T08:24:00.365Z,11.20
2022-10-15T08:26:38.034Z,11.20
2022-10-15T08:29:07.311Z,11.26
2022-10-15T08:31:36.602Z,11.27
2022-10-15T08:34:05.915Z,11.28
2022-10-15T08:36:35.192Z,11.31
2022-10-15T08:39:06.740Z,11.33
2022-10-15T08:41:43.369Z,11.33
2022-10-15T08:44:22.918Z,11.31
2022-10-15T08:46:56.174Z,11.28
2022-10-15T08:49:37.019Z,11.31
2022-10-15T08:52:18.685Z,11.35
2022-10-15T08:54:48.037Z,11.41
2022-10-15T08:57:37.614Z,11.49
2022-10-15T09:00:13.589Z,11.56
2022-10-15T09:02:52.349Z,11.58
2022-10-15T09:05:30.445Z,11.57
2022-10-15T09:08:09.600Z,11.55
2022-10-15T09:10:45.381Z,11.54
2022-10-15T09:13:27.777Z,11.50
2022-10-15T09:16:04.482Z,11.51
2022-10-15T09:18:37.670Z,11.51
2022-10-15T09:21:08.768Z,11.50
2022-10-15T09:23:38.585Z,11.50
2022-10-15T09:26:21.614Z,11.50
2022-10-15T09:28:58.166Z,11.50
2022-10-15T09:31:32.000Z,11.52
2022-10-15T09:34:07.007Z,11.50
2022-10-15T09:36:42.204Z,11.47
2022-10-15T09:39:31.473Z,11.41
2022-10-15T09:42:13.413Z,11.31
2022-10-15T09:44:47.325Z,11.28
2022-10-15T09:47:19.272Z,11.25
2022-10-15T09:49:49.752Z,11.22
2022-10-15T09:52:27.194Z,11.18
2022-10-15T09:55:07.811Z,11.12
2022-10-15T09:57:39.443Z,11.05
2022-10-15T10:00:14.352Z,10.99
2022-10-15T10:02:45.050Z,10.95
2022-10-15T10:05:28.879Z,10.91
2022-10-15T10:08:11.183Z,10.86
2022-10-15T10:10:44.430Z,10.83
2022-10-15T10:13:26.507Z,10.81
2022-10-15T10:16:03.718Z,10.81
2022-10-15T10:18:33.210Z,10.80
2022-10-15T10:21:05.478Z,10.81
2022-10-15T10:23:36.832Z,10.82
2022-10-15T10:26:08.138Z,10.83
2022-10-15T10:28:44.215Z,10.83
2022-10-15T10:31:15.921Z,10.82
2022-10-15T10:33:47.556Z,10.82
2022-10-15T10:36:27.957Z,10.81
2022-10-15T10:38:59.923Z,10.80
2022-10-15T10:41:49.874Z,10.80
2022-10-15T10:44:27.846Z,10.80
2022-10-15T10:47:17.432Z,10.84
2022-10-15T10:49:51.392Z,10.89
2022-10-15T10:52:25.916Z,10.90
2022-10-15T10:55:02.489Z,10.91
2022-10-15T10:57:47.060Z,10.93
2022-10-15T11:00:21.170Z,10.95
2022-10-15T11:02:54.092Z,10.99
2022-10-15T11:05:28.418Z,11.04
2022-10-15T11:08:07.246Z,11.11
2022-10-15T11:10:45.170Z,11.15
2022-10-15T11:13:32.444Z,11.21
2022-10-15T11:16:08.444Z,11.24
2022-10-15T11:18:49.644Z,11.29
2022-10-15T11:21:27.926Z,11.35
2022-10-15T11:24:16.790Z,11.41
2022-10-15T11:27:10.821Z,11.46
2022-10-15T11:29:55.094Z,11.49
2022-10-15T11:32:54.414Z,11.55
2022-10-15T11:35:52.924Z,11.60
2022-10-15T11:38:31.868Z,11.66
2022-10-15T11:41:18.731Z,11.71
2022-10-15T11:44:06.249Z,11.76
2022-10-15T11:46:44.254Z,11.82
2022-10-15T11:49:28.591Z,11.89
2022-10-15T11:52:25.645Z,11.96
2022-10-15T11:55:04.287Z,11.99
2022-10-15T11:57:36.085Z,12.02
2022-10-15T12:00:17.674Z,12.06
2022-10-15T12:02:49.131Z,12.07
2022-10-15T12:05:27.057Z,12.12
2022-10-15T12:07:59.295Z,12.15
2022-10-15T12:10:42.576Z,12.18
2022-10-15T12:13:18.274Z,12.20
2022-10-15T12:15:58.551Z,12.25
2022-10-15T12:18:37.923Z,12.26
2022-10-15T12:21:32.079Z,12.31
2022-10-15T12:24:04.057Z,12.36
2022-10-15T12:26:35.280Z,12.40
2022-10-15T12:29:08.326Z,12.42
2022-10-15T12:31:49.949Z,12.43
2022-10-15T12:34:38.663Z,12.45
2022-10-15T12:37:18.881Z,12.43
2022-10-15T12:39:57.305Z,12.42
2022-10-15T12:42:30.287Z,12.31
2022-10-15T12:45:02.804Z,12.41
2022-10-15T12:47:48.791Z,12.43
2022-10-15T12:50:23.005Z,12.45
2022-10-15T12:52:58.467Z,12.46
2022-10-15T12:55:35.046Z,11.94
2022-10-15T12:58:33.552Z,11.23
2022-10-15T13:01:09.282Z,10.54
2022-10-15T13:03:40.927Z,10.14
2022-10-15T13:06:35.851Z,9.83
2022-10-15T13:09:23.317Z,9.66
2022-10-15T13:11:56.194Z,9.48
2022-10-15T13:14:37.884Z,9.48
2022-10-15T13:17:16.657Z,9.42
2022-10-15T13:19:51.047Z,9.36
2022-10-15T13:22:26.368Z,9.31
2022-10-15T13:24:55.374Z,9.27
2022-10-15T13:27:31.576Z,9.19
2022-10-15T13:30:03.279Z,9.18
2022-10-15T13:32:35.601Z,9.12
2022-10-15T13:35:12.078Z,9.13
2022-10-15T13:37:45.810Z,9.08
2022-10-15T13:40:22.649Z,9.09
2022-10-15T13:43:05.774Z,9.06
2022-10-15T13:45:37.837Z,9.01
2022-10-15T13:48:13.778Z,8.99
2022-10-15T13:50:43.141Z,8.97
2022-10-15T13:53:20.005Z,8.86
2022-10-15T13:55:51.639Z,8.95
2022-10-15T13:58:28.624Z,8.84
2022-10-15T14:01:01.480Z,8.87
2022-10-15T14:03:32.222Z,8.79
2022-10-15T14:06:13.921Z,8.71
2022-10-15T14:08:43.795Z,8.72
2022-10-15T14:11:15.484Z,8.75
2022-10-15T14:13:51.790Z,8.83
2022-10-15T14:16:26.291Z,8.88
2022-10-15T14:18:59.667Z,8.93
2022-10-15T14:21:32.055Z,8.94
2022-10-15T14:24:07.984Z,8.94
2022-10-15T14:26:38.770Z,8.92
2022-10-15T14:29:18.806Z,8.84
2022-10-15T14:31:50.629Z,8.78
2022-10-15T14:34:41.301Z,8.58
2022-10-15T14:37:32.299Z,8.37
2022-10-15T14:40:16.136Z,8.33
2022-10-15T14:42:47.185Z,8.38
2022-10-15T14:45:25.696Z,8.42
2022-10-15T14:47:57.878Z,8.42
2022-10-15T14:50:28.816Z,8.42
2022-10-15T14:52:58.873Z,8.42
2022-10-15T14:55:37.642Z,8.42
2022-10-15T14:58:11.519Z,8.40
2022-10-15T15:00:45.114Z,8.39
2022-10-15T15:03:19.149Z,8.38
2022-10-15T15:05:49.818Z,8.37
2022-10-15T15:08:19.147Z,8.37
2022-10-15T15:10:49.675Z,8.35
2022-10-15T15:13:23.095Z,8.33
2022-10-15T15:15:54.717Z,8.20
2022-10-15T15:18:24.694Z,8.30
2022-10-15T15:20:54.731Z,8.28
2022-10-15T15:23:27.552Z,8.27
2022-10-15T15:25:57.402Z,8.28
2022-10-15T15:28:28.892Z,8.28
2022-10-15T15:31:01.712Z,8.25
2022-10-15T15:33:31.123Z,8.20
2022-10-15T15:36:04.688Z,8.20
2022-10-15T15:41:25.567Z,8.15
2022-10-15T15:43:55.206Z,8.13
2022-10-15T15:46:26.469Z,8.11
2022-10-15T15:48:57.929Z,8.11
2022-10-15T15:51:30.215Z,8.13
2022-10-15T15:54:04.074Z,8.15
2022-10-15T15:56:34.406Z,8.14
2022-10-15T15:59:04.082Z,8.14
2022-10-15T16:01:35.312Z,8.13
2022-10-15T16:04:04.611Z,8.12
2022-10-15T16:06:33.893Z,8.11
2022-10-15T16:09:05.074Z,8.11
2022-10-15T16:11:34.861Z,8.10
2022-10-15T16:14:09.079Z,8.09
2022-10-15T16:16:40.931Z,8.15
2022-10-15T16:19:10.375Z,8.30
2022-10-15T16:21:39.634Z,8.44
2022-10-15T16:24:08.972Z,8.57
2022-10-15T16:26:38.237Z,8.74
2022-10-15T16:29:07.668Z,8.89
2022-10-15T16:31:37.761Z,9.03
2022-10-15T16:34:08.989Z,9.19
2022-10-15T16:36:38.352Z,9.33
2022-10-15T16:39:07.916Z,9.47
2022-10-15T16:41:37.266Z,9.59
2022-10-15T16:44:06.808Z,9.64
2022-10-15T16:46:36.173Z,9.77
2022-10-15T16:49:05.522Z,9.82
2022-10-15T16:51:39.836Z,9.96
2022-10-15T16:54:15.013Z,10.03
2022-10-15T16:56:47.830Z,9.91
2022-10-15T16:59:19.912Z,9.87
2022-10-15T17:01:49.691Z,9.73
2022-10-15T17:04:19.138Z,9.70
2022-10-15T17:06:50.436Z,9.53
2022-10-15T17:09:19.904Z,9.55
2022-10-15T17:11:49.501Z,9.50
2022-10-15T17:14:20.124Z,9.52
2022-10-15T17:16:51.779Z,9.48
2022-10-15T17:19:23.056Z,9.50
2022-10-15T17:21:55.123Z,9.51
2022-10-15T17:24:24.398Z,9.54
2022-10-15T17:26:54.321Z,9.55
2022-10-15T17:29:25.419Z,9.58
2022-10-15T17:31:55.932Z,9.50
2022-10-15T17:34:27.006Z,9.22
2022-10-15T17:36:58.473Z,9.30
2022-10-15T17:39:27.924Z,9.27
2022-10-15T17:41:57.395Z,9.10
2022-10-15T17:44:27.368Z,9.16
2022-10-15T17:46:56.918Z,9.19
2022-10-15T17:49:30.656Z,9.14
2022-10-15T17:52:02.749Z,9.13
2022-10-15T17:54:32.182Z,9.17
2022-10-15T17:57:01.540Z,9.13
2022-10-15T17:59:31.107Z,9.11
2022-10-15T18:02:01.507Z,9.15
2022-10-15T18:04:34.760Z,9.11
2022-10-15T18:07:06.097Z,8.96
2022-10-15T18:09:35.806Z,8.96
2022-10-15T18:12:05.345Z,8.98
2022-10-15T18:14:36.465Z,9.08
2022-10-15T18:17:06.668Z,9.15
2022-10-15T18:19:36.017Z,9.11
2022-10-15T18:22:07.179Z,9.09
2022-10-15T18:24:36.589Z,9.15
2022-10-15T18:27:06.967Z,9.10
2022-10-15T18:29:36.267Z,8.99
2022-10-15T18:32:05.854Z,8.99
2022-10-15T18:34:35.247Z,9.03
2022-10-15T18:37:06.499Z,9.10
2022-10-15T18:39:35.927Z,9.16
2022-10-15T18:42:05.243Z,9.00
2022-10-15T18:44:34.630Z,8.96
2022-10-15T18:47:03.985Z,9.00
2022-10-15T18:49:35.436Z,9.02
2022-10-15T18:52:21.607Z,8.92
2022-10-15T18:54:56.620Z,9.01
2022-10-15T18:57:25.960Z,9.00
2022-10-15T18:59:55.297Z,8.93
2022-10-15T19:02:24.806Z,8.94
2022-10-15T19:04:54.458Z,8.87
2022-10-15T19:07:30.017Z,8.59
2022-10-15T19:10:01.803Z,8.11
2022-10-15T19:13:17.566Z,7.73
2022-10-15T19:15:47.003Z,7.74
2022-10-15T19:18:17.296Z,7.83
2022-10-15T19:20:48.685Z,7.96
2022-10-15T19:23:18.761Z,8.10
2022-10-15T19:25:48.028Z,8.24
2022-10-15T19:28:19.362Z,8.39
2022-10-15T19:34:07.360Z,8.63
2022-10-15T19:36:38.472Z,8.85
2022-10-15T19:41:24.439Z,9.08
2022-10-15T19:45:22.042Z,9.22
2022-10-15T19:47:52.587Z,9.32
2022-10-15T19:50:23.175Z,9.40
2022-10-15T19:52:54.066Z,9.45
2022-10-15T19:55:24.750Z,9.48
2022-10-15T19:58:00.031Z,9.51
2022-10-15T20:00:33.277Z,9.54
2022-10-15T20:03:03.961Z,9.57
2022-10-15T20:05:34.606Z,9.59
2022-10-15T20:08:05.233Z,9.58
2022-10-15T20:10:36.414Z,9.62
2022-10-15T20:13:07.101Z,9.61
2022-10-15T20:15:44.411Z,9.61
2022-10-15T20:18:15.621Z,9.62
2022-10-15T20:20:48.835Z,9.62
2022-10-15T20:23:20.710Z,9.59
2022-10-15T20:25:51.295Z,9.57
2022-10-15T20:28:22.425Z,9.55
2022-10-15T20:30:56.339Z,9.53
2022-10-15T20:33:26.936Z,9.49
2022-10-15T20:35:57.489Z,9.46
2022-10-15T20:38:28.017Z,9.42
2022-10-15T20:40:58.593Z,9.38
2022-10-15T20:43:29.239Z,9.33
2022-10-15T20:46:02.652Z,9.25
2022-10-15T20:48:33.896Z,9.21
2022-10-15T20:51:05.312Z,9.15
2022-10-15T20:53:36.285Z,9.11
2022-10-15T20:56:07.200Z,9.04
2022-10-15T20:58:38.079Z,8.99
2022-10-15T21:01:11.357Z,8.94
2022-10-15T21:03:42.009Z,8.88
2022-10-15T21:06:12.643Z,8.84
2022-10-15T21:08:43.280Z,8.80
2022-10-15T21:11:13.836Z,8.75
2022-10-15T21:13:45.080Z,8.70
2022-10-15T21:16:18.631Z,8.63
2022-10-15T21:18:49.318Z,8.60
2022-10-15T21:21:20.555Z,8.55
2022-10-15T21:23:51.115Z,8.52
2022-10-15T21:26:22.582Z,8.47
2022-10-15T21:28:58.282Z,8.42
2022-10-15T21:31:31.754Z,8.42
2022-10-15T21:34:02.279Z,8.61
2022-10-15T21:36:32.950Z,9.17
2022-10-15T21:39:05.470Z,9.84
2022-10-15T21:41:37.791Z,10.42
2022-10-15T21:44:10.467Z,10.90
2022-10-15T21:46:44.651Z,11.27
2022-10-15T21:49:15.621Z,11.55
2022-10-15T21:51:46.303Z,11.71
2022-10-15T21:54:16.831Z,11.87
2022-10-15T21:56:47.363Z,11.85
2022-10-15T21:59:18.169Z,11.79
2022-10-15T22:01:51.398Z,11.74
2022-10-15T22:04:21.969Z,11.70
2022-10-15T22:06:52.545Z,11.64
2022-10-15T22:09:23.241Z,11.59
2022-10-15T22:11:53.813Z,11.37
2022-10-15T22:14:24.449Z,11.11
2022-10-15T22:16:57.631Z,10.78
2022-10-15T22:19:28.257Z,10.48
2022-10-15T22:21:58.807Z,10.21
2022-10-15T22:24:29.733Z,10.05
2022-10-15T22:27:00.517Z,9.93
2022-10-15T22:29:35.183Z,9.83
2022-10-15T22:32:08.791Z,9.77
2022-10-15T22:34:39.581Z,9.61
2022-10-15T22:37:10.203Z,9.45
2022-10-15T22:39:40.837Z,9.36
2022-10-15T22:42:11.403Z,9.31
2022-10-15T22:44:42.210Z,9.22
2022-10-15T22:47:15.553Z,9.26
2022-10-15T22:49:46.088Z,9.29
2022-10-15T22:52:16.722Z,9.38
2022-10-15T22:54:47.292Z,9.33
2022-10-15T22:57:17.902Z,9.24
2022-10-15T22:59:48.503Z,9.16
2022-10-15T23:02:22.170Z,9.09
2022-10-15T23:04:52.777Z,8.94
2022-10-15T23:07:23.248Z,8.85
2022-10-15T23:09:53.780Z,8.80
2022-10-15T23:12:24.704Z,8.72
2022-10-15T23:14:55.420Z,8.61
2022-10-15T23:17:28.582Z,8.54
2022-10-15T23:19:59.187Z,8.55
2022-10-15T23:22:29.702Z,8.49
2022-10-15T23:25:01.067Z,8.42
2022-10-15T23:27:31.675Z,8.35
2022-10-15T23:30:14.422Z,8.26
2022-10-15T23:32:54.052Z,8.22
2022-10-15T23:35:24.669Z,8.16
2022-10-15T23:37:55.255Z,8.18
2022-10-15T23:40:25.788Z,8.25
2022-10-15T23:42:56.350Z,8.36
2022-10-15T23:45:27.669Z,8.36
2022-10-15T23:48:01.358Z,8.27
2022-10-15T23:50:37.630Z,8.13
2022-10-15T23:53:08.236Z,8.02
2022-10-15T23:55:41.713Z,7.83
2022-10-15T23:58:12.609Z,7.34
